Time;durP1;ratioP1;P1;durP2;ratioP2;P2;SDS_P1;SDS_P2;PMS_P1;PMS_P2;Temp;Humidity;BMP_temperature;BMP_pressure;BME280_temperature;BME280_humidity;BME280_pressure;Samples;Min_cycle;Max_cycle;Signal;HPM_P1;HPM_P2
2023/04/16 00:01:30;;;;;;;36.43;23.70;;;7.20;99.90;;;;;;5117624;28;20460;-65
2023/04/16 00:03:59;;;;;;;38.33;23.00;;;7.20;99.90;;;;;;5117018;28;20467;-66
2023/04/16 00:06:26;;;;;;;33.67;23.47;;;7.20;99.90;;;;;;5116976;28;20467;-66
2023/04/16 00:08:53;;;;;;;31.20;25.33;;;7.20;99.90;;;;;;5117127;28;20467;-66
2023/04/16 00:11:22;;;;;;;30.97;22.80;;;7.20;99.90;;;;;;5117340;28;20463;-66
2023/04/16 00:13:49;;;;;;;32.40;22.87;;;7.10;99.90;;;;;;5117168;28;20498;-66
2023/04/16 00:16:16;;;;;;;35.13;24.07;;;7.10;99.90;;;;;;5117269;28;20865;-66
2023/04/16 00:18:44;;;;;;;37.43;25.60;;;7.10;99.90;;;;;;5117162;28;20902;-66
2023/04/16 00:21:13;;;;;;;31.80;24.00;;;7.20;99.90;;;;;;5117324;28;20747;-66
2023/04/16 00:23:40;;;;;;;31.63;25.23;;;7.20;99.90;;;;;;5117537;28;20542;-66
2023/04/16 00:26:08;;;;;;;35.13;25.27;;;7.10;99.90;;;;;;5116785;28;20562;-66
2023/04/16 00:28:36;;;;;;;32.70;24.73;;;7.20;99.90;;;;;;5116776;28;20490;-65
2023/04/16 00:31:03;;;;;;;32.03;23.60;;;7.10;99.90;;;;;;5117039;28;20947;-66
2023/04/16 00:33:30;;;;;;;38.50;25.90;;;7.10;99.90;;;;;;5117109;28;20530;-65
2023/04/16 00:35:57;;;;;;;35.90;25.47;;;7.10;99.90;;;;;;5117000;28;20459;-65
2023/04/16 00:38:29;;;;;;;32.40;25.90;;;7.10;99.90;;;;;;5126403;27;20477;-66
2023/04/16 00:40:57;;;;;;;37.33;26.90;;;7.00;99.90;;;;;;5141254;27;20462;-65
2023/04/16 00:43:26;;;;;;;34.27;23.90;;;7.10;99.90;;;;;;5141302;27;20560;-66
2023/04/16 00:45:54;;;;;;;37.13;26.27;;;7.10;99.90;;;;;;5140989;27;20879;-66
2023/04/16 00:48:22;;;;;;;34.20;24.80;;;7.10;99.90;;;;;;5140859;27;20459;-66
2023/04/16 00:50:49;;;;;;;33.27;23.87;;;7.10;99.90;;;;;;5141249;27;20462;-66
2023/04/16 00:53:16;;;;;;;34.50;25.20;;;7.00;99.90;;;;;;5140721;27;20592;-66
2023/04/16 00:55:45;;;;;;;35.50;25.07;;;7.00;99.90;;;;;;5140682;27;20460;-66
2023/04/16 00:58:13;;;;;;;34.60;24.33;;;7.00;99.90;;;;;;5140190;27;20463;-67
2023/04/16 01:00:40;;;;;;;32.80;24.60;;;7.10;99.90;;;;;;5140285;27;20466;-66
2023/04/16 01:03:07;;;;;;;40.40;27.53;;;7.00;99.90;;;;;;5140296;27;20454;-68
2023/04/16 01:05:36;;;;;;;38.03;28.00;;;7.10;99.90;;;;;;5139836;27;20458;-68
2023/04/16 01:08:03;;;;;;;38.60;26.70;;;7.00;99.90;;;;;;5139653;27;20562;-67
2023/04/16 01:10:30;;;;;;;40.67;27.17;;;7.00;99.90;;;;;;5139658;27;20975;-67
2023/04/16 01:12:59;;;;;;;38.87;27.80;;;7.10;99.90;;;;;;5140297;27;20486;-67
2023/04/16 01:15:32;;;;;;;38.47;28.10;;;7.10;99.90;;;;;;5140646;27;20595;-68
2023/04/16 01:17:59;;;;;;;32.90;26.33;;;7.20;99.90;;;;;;5140659;27;20481;-67
2023/04/16 01:20:33;;;;;;;41.53;27.60;;;7.10;99.90;;;;;;5140524;27;20463;-67
2023/04/16 01:23:01;;;;;;;42.20;28.33;;;7.10;99.90;;;;;;5140400;27;20893;-67
2023/04/16 01:25:29;;;;;;;36.83;27.20;;;7.10;99.90;;;;;;5140747;27;20528;-67
2023/04/16 01:27:58;;;;;;;40.30;29.33;;;7.10;99.90;;;;;;5139706;27;20461;-67
2023/04/16 01:30:25;;;;;;;43.43;30.30;;;7.10;99.90;;;;;;5140254;27;20462;-67
2023/04/16 01:32:52;;;;;;;43.17;30.97;;;7.00;99.90;;;;;;5140215;27;20508;-67
2023/04/16 01:35:19;;;;;;;36.60;28.03;;;7.00;99.90;;;;;;5140471;27;20433;-67
2023/04/16 01:37:46;;;;;;;46.43;31.80;;;7.10;99.90;;;;;;5140309;27;20484;-66
2023/04/16 01:40:26;;;;;;;43.97;30.77;;;7.10;99.90;;;;;;5140232;27;20737;-67
2023/04/16 01:42:56;;;;;;;50.80;32.37;;;7.10;99.90;;;;;;5139287;27;20462;-67
2023/04/16 01:45:23;;;;;;;48.87;31.37;;;7.00;99.90;;;;;;5140063;27;20571;-67
2023/04/16 01:48:04;;;;;;;47.50;32.90;;;7.10;99.90;;;;;;5139787;27;20733;-67
2023/04/16 01:50:31;;;;;;;44.93;32.13;;;7.00;99.90;;;;;;5139738;27;20459;-67
2023/04/16 01:53:00;;;;;;;54.30;34.67;;;7.10;99.90;;;;;;5139710;27;20469;-67
2023/04/16 01:55:29;;;;;;;46.80;32.20;;;7.10;99.90;;;;;;5140164;27;20469;-67
2023/04/16 01:57:56;;;;;;;43.43;33.00;;;7.10;99.90;;;;;;5139447;27;20504;-67
2023/04/16 02:00:27;;;;;;;47.80;34.83;;;7.10;99.90;;;;;;5140088;27;20462;-67
2023/04/16 02:02:54;;;;;;;49.33;34.63;;;7.20;99.90;;;;;;5139609;27;20507;-67
2023/04/16 02:05:21;;;;;;;46.80;33.00;;;7.20;99.90;;;;;;5139767;27;20847;-67
2023/04/16 02:07:57;;;;;;;42.33;28.90;;;7.10;99.90;;;;;;5139068;27;20455;-67
2023/04/16 02:10:24;;;;;;;43.30;30.47;;;7.10;99.90;;;;;;5139186;27;20558;-67
2023/04/16 02:12:53;;;;;;;42.97;31.80;;;7.20;99.90;;;;;;5138853;27;20490;-67
2023/04/16 02:15:20;;;;;;;41.10;29.43;;;7.10;99.90;;;;;;5139489;27;20470;-67
2023/04/16 02:17:49;;;;;;;39.43;30.27;;;7.10;99.90;;;;;;5139499;27;20876;-67
2023/04/16 02:20:17;;;;;;;44.27;31.47;;;7.10;99.90;;;;;;5139194;27;20905;-67
2023/04/16 02:22:49;;;;;;;44.60;32.67;;;7.10;99.90;;;;;;5139637;27;20901;-67
2023/04/16 02:25:16;;;;;;;42.93;30.03;;;7.00;99.90;;;;;;5139328;27;20473;-67
2023/04/16 02:27:43;;;;;;;49.37;32.70;;;7.10;99.90;;;;;;5139131;27;20459;-67
2023/04/16 02:30:12;;;;;;;47.30;34.17;;;7.10;99.90;;;;;;5139272;27;20485;-67
2023/04/16 02:32:40;;;;;;;43.70;30.73;;;7.10;99.90;;;;;;5139213;27;20490;-67
2023/04/16 02:35:08;;;;;;;47.83;33.17;;;7.10;99.90;;;;;;5139277;27;20459;-67
2023/04/16 02:37:35;;;;;;;46.10;31.97;;;7.20;99.90;;;;;;5139460;27;20924;-67
2023/04/16 02:40:02;;;;;;;44.53;32.37;;;7.10;99.90;;;;;;5138889;27;20459;-67
2023/04/16 02:42:29;;;;;;;44.37;32.53;;;7.20;99.90;;;;;;5138972;27;20462;-67
2023/04/16 02:44:56;;;;;;;47.33;33.77;;;7.10;99.90;;;;;;5138916;27;20455;-67
2023/04/16 02:47:25;;;;;;;48.27;34.33;;;7.20;99.90;;;;;;5139126;27;20465;-67
2023/04/16 02:49:52;;;;;;;49.50;34.30;;;7.20;99.90;;;;;;5138594;27;20909;-67
2023/04/16 02:52:19;;;;;;;48.80;35.37;;;7.10;99.90;;;;;;5138544;27;20549;-67
2023/04/16 02:54:46;;;;;;;55.03;35.83;;;7.20;99.90;;;;;;5138009;27;20455;-67
2023/04/16 02:57:13;;;;;;;47.90;35.10;;;7.20;99.90;;;;;;5139176;27;20546;-67
2023/04/16 02:59:40;;;;;;;50.30;34.73;;;7.20;99.90;;;;;;5138596;27;20463;-67
2023/04/16 03:02:13;;;;;;;60.37;36.60;;;7.20;99.90;;;;;;5138484;27;20459;-67
2023/04/16 03:04:42;;;;;;;58.53;33.83;;;7.20;99.90;;;;;;5138447;27;20543;-67
2023/04/16 03:07:11;;;;;;;54.83;37.87;;;7.20;99.90;;;;;;5138933;27;20466;-67
2023/04/16 03:09:38;;;;;;;46.80;33.50;;;7.20;99.90;;;;;;5138555;27;20809;-67
2023/04/16 03:12:06;;;;;;;51.60;36.83;;;7.20;99.90;;;;;;5138802;27;20462;-69
2023/04/16 03:14:33;;;;;;;52.23;35.27;;;7.20;99.90;;;;;;5138326;27;20490;-67
2023/04/16 03:17:00;;;;;;;47.77;33.97;;;7.20;99.90;;;;;;5138222;27;20459;-68
2023/04/16 03:19:27;;;;;;;45.87;32.90;;;7.20;99.90;;;;;;5138578;27;20462;-67
2023/04/16 03:21:56;;;;;;;48.43;32.27;;;7.20;99.90;;;;;;5138502;27;20459;-68
2023/04/16 03:24:23;;;;;;;45.53;34.30;;;7.20;99.90;;;;;;5138339;27;20440;-68
2023/04/16 03:26:50;;;;;;;43.60;32.60;;;7.20;99.90;;;;;;5138033;27;20451;-68
2023/04/16 03:29:17;;;;;;;47.50;32.07;;;7.20;99.90;;;;;;5137967;27;20577;-68
2023/04/16 03:31:44;;;;;;;46.70;34.40;;;7.20;99.90;;;;;;5137702;28;20462;-68
2023/04/16 03:34:11;;;;;;;42.53;32.70;;;7.30;99.90;;;;;;5138204;28;20494;-67
2023/04/16 03:36:39;;;;;;;43.73;31.30;;;7.30;99.90;;;;;;5118718;28;20459;-68
2023/04/16 03:39:07;;;;;;;46.67;33.43;;;7.30;99.90;;;;;;5117695;28;20553;-68
2023/04/16 03:41:34;;;;;;;42.17;32.47;;;7.30;99.90;;;;;;5117953;28;20464;-68
2023/04/16 03:44:01;;;;;;;42.43;32.67;;;7.20;99.90;;;;;;5117659;28;20434;-68
2023/04/16 03:46:28;;;;;;;42.63;33.17;;;7.20;99.90;;;;;;5117532;28;20459;-68
2023/04/16 03:48:56;;;;;;;46.93;33.33;;;7.30;99.90;;;;;;5116969;28;20462;-68
2023/04/16 03:51:23;;;;;;;44.13;32.50;;;7.30;99.90;;;;;;5117433;28;20752;-67
2023/04/16 03:53:50;;;;;;;48.50;36.07;;;7.40;99.90;;;;;;5117769;28;20530;-68
2023/04/16 03:56:19;;;;;;;48.80;35.43;;;7.40;99.90;;;;;;5117856;28;20459;-68
2023/04/16 03:58:46;;;;;;;48.87;33.60;;;7.40;99.90;;;;;;5117571;28;20748;-68
2023/04/16 04:01:14;;;;;;;49.80;33.67;;;7.30;99.90;;;;;;5116792;28;20451;-68
2023/04/16 04:03:41;;;;;;;48.70;36.37;;;7.40;99.90;;;;;;5117201;28;20486;-68
2023/04/16 04:06:08;;;;;;;49.87;34.53;;;7.40;99.90;;;;;;5117014;28;20459;-68
2023/04/16 04:08:36;;;;;;;49.33;34.07;;;7.40;99.90;;;;;;5117683;28;20460;-68
2023/04/16 04:11:03;;;;;;;47.00;34.30;;;7.40;99.90;;;;;;5118217;28;20463;-68
2023/04/16 04:13:31;;;;;;;48.33;36.53;;;7.40;99.90;;;;;;5121426;28;20495;-68
2023/04/16 04:15:59;;;;;;;45.30;34.17;;;7.40;99.90;;;;;;5121118;28;20494;-68
2023/04/16 04:18:26;;;;;;;46.27;34.30;;;7.40;99.90;;;;;;5120734;28;20448;-68
2023/04/16 04:20:53;;;;;;;48.43;34.77;;;7.40;99.90;;;;;;5120953;28;20749;-68
2023/04/16 04:23:20;;;;;;;42.70;32.37;;;7.40;99.90;;;;;;5120818;28;20463;-69
2023/04/16 04:25:47;;;;;;;49.03;36.33;;;7.50;99.90;;;;;;5120892;28;20461;-69
2023/04/16 04:28:15;;;;;;;47.80;33.63;;;7.40;99.90;;;;;;5120396;28;20480;-69
2023/04/16 04:30:43;;;;;;;49.63;35.27;;;7.50;99.90;;;;;;5121325;28;20488;-69
2023/04/16 04:33:10;;;;;;;55.83;36.00;;;7.50;99.90;;;;;;5120840;28;20944;-69
2023/04/16 04:35:37;;;;;;;51.37;36.93;;;7.50;99.90;;;;;;5120847;28;20570;-68
2023/04/16 04:38:14;;;;;;;46.10;34.67;;;7.50;99.90;;;;;;5120854;28;20748;-68
2023/04/16 04:40:41;;;;;;;47.60;34.97;;;7.50;99.90;;;;;;5120915;28;20461;-68
2023/04/16 04:43:08;;;;;;;50.83;37.30;;;7.50;99.90;;;;;;5120332;28;20466;-68
2023/04/16 04:45:35;;;;;;;47.83;35.20;;;7.50;99.90;;;;;;5120496;28;20455;-68
2023/04/16 04:48:04;;;;;;;52.67;35.40;;;7.60;99.90;;;;;;5119854;28;20765;-68
2023/04/16 04:50:31;;;;;;;57.43;37.60;;;7.50;99.90;;;;;;5120839;28;20487;-68
2023/04/16 04:52:58;;;;;;;55.10;36.73;;;7.50;99.90;;;;;;5120194;28;20467;-68
2023/04/16 04:55:25;;;;;;;52.40;37.70;;;7.50;99.90;;;;;;5120636;28;20474;-68
2023/04/16 04:57:52;;;;;;;46.93;35.27;;;7.50;99.90;;;;;;5120584;28;20463;-68
2023/04/16 05:00:20;;;;;;;53.83;35.50;;;7.50;99.90;;;;;;5120769;28;20902;-68
2023/04/16 05:02:47;;;;;;;51.50;34.60;;;7.50;99.90;;;;;;5120742;28;20462;-68
2023/04/16 05:05:15;;;;;;;50.60;35.20;;;7.50;99.90;;;;;;5119943;28;20513;-68
2023/04/16 05:07:43;;;;;;;51.43;34.90;;;7.60;99.90;;;;;;5120342;28;20464;-68
2023/04/16 05:10:10;;;;;;;51.77;35.00;;;7.50;99.90;;;;;;5120342;28;20869;-68
2023/04/16 05:12:38;;;;;;;51.93;35.37;;;7.50;99.90;;;;;;5120504;28;20467;-68
2023/04/16 05:15:07;;;;;;;56.80;35.57;;;7.50;99.90;;;;;;5119894;28;20498;-68
2023/04/16 05:17:34;;;;;;;54.40;38.00;;;7.50;99.90;;;;;;5120433;28;20455;-68
2023/04/16 05:20:02;;;;;;;44.60;31.67;;;7.60;99.90;;;;;;5120309;28;20459;-68
2023/04/16 05:22:30;;;;;;;46.17;32.47;;;7.50;99.90;;;;;;5119712;28;20541;-68
2023/04/16 05:24:57;;;;;;;50.33;33.47;;;7.50;99.90;;;;;;5119457;28;20456;-68
2023/04/16 05:27:24;;;;;;;53.03;35.67;;;7.50;99.90;;;;;;5119878;28;20716;-68
2023/04/16 05:29:51;;;;;;;53.83;35.33;;;7.60;99.90;;;;;;5119805;28;20491;-68
2023/04/16 05:32:19;;;;;;;49.13;34.27;;;7.50;99.90;;;;;;5119855;28;20470;-68
2023/04/16 05:34:46;;;;;;;53.73;34.33;;;7.60;99.90;;;;;;5119970;28;20487;-68
2023/04/16 05:37:13;;;;;;;53.40;35.77;;;7.60;99.90;;;;;;5119554;28;20923;-68
2023/04/16 05:39:41;;;;;;;57.57;36.17;;;7.60;99.90;;;;;;5119739;28;20459;-68
2023/04/16 05:42:09;;;;;;;45.40;31.40;;;7.60;99.90;;;;;;5119514;28;20459;-68
2023/04/16 05:44:36;;;;;;;47.27;32.40;;;7.60;99.90;;;;;;5119379;28;20967;-68
2023/04/16 05:47:03;;;;;;;50.53;31.90;;;7.60;99.90;;;;;;5119513;28;20503;-68
2023/04/16 05:49:30;;;;;;;45.53;31.90;;;7.60;99.90;;;;;;5118469;28;20474;-68
2023/04/16 05:51:57;;;;;;;55.07;35.40;;;7.60;99.90;;;;;;5118868;28;20463;-68
2023/04/16 05:54:24;;;;;;;46.57;32.17;;;7.70;99.90;;;;;;5119208;28;20486;-68
2023/04/16 05:56:53;;;;;;;49.90;34.50;;;7.70;99.90;;;;;;5119340;27;20459;-68
2023/04/16 05:59:20;;;;;;;50.10;32.40;;;7.60;99.90;;;;;;5118887;28;20467;-68
2023/04/16 06:01:47;;;;;;;45.83;33.23;;;7.70;99.90;;;;;;5119386;28;20463;-68
2023/04/16 06:04:14;;;;;;;45.43;32.50;;;7.70;99.90;;;;;;5119552;28;20733;-68
2023/04/16 06:06:41;;;;;;;45.20;31.87;;;7.70;99.90;;;;;;5119221;28;20470;-68
2023/04/16 06:09:09;;;;;;;51.17;33.20;;;7.70;99.90;;;;;;5118710;28;20464;-68
2023/04/16 06:11:36;;;;;;;47.50;33.23;;;7.70;99.90;;;;;;5118915;28;20442;-68
2023/04/16 06:14:05;;;;;;;49.23;34.10;;;7.70;99.90;;;;;;5119306;28;20578;-68
2023/04/16 06:16:32;;;;;;;49.13;30.70;;;7.70;99.90;;;;;;5118646;28;20751;-68
2023/04/16 06:18:59;;;;;;;49.27;31.03;;;7.80;99.90;;;;;;5118209;28;20454;-68
2023/04/16 06:21:27;;;;;;;51.23;35.13;;;7.70;99.90;;;;;;5118990;28;20745;-68
2023/04/16 06:23:55;;;;;;;54.57;35.70;;;7.70;99.90;;;;;;5118731;28;20463;-68
2023/04/16 06:26:28;;;;;;;47.00;33.63;;;7.70;99.90;;;;;;5118057;28;20910;-68
2023/04/16 06:28:55;;;;;;;51.30;32.93;;;7.80;99.90;;;;;;5118077;28;20574;-67
2023/04/16 06:31:25;;;;;;;49.10;35.03;;;7.80;99.90;;;;;;5118268;28;20466;-68
2023/04/16 06:33:52;;;;;;;49.33;34.93;;;7.70;99.90;;;;;;5117757;28;20483;-68
2023/04/16 06:36:19;;;;;;;49.13;37.10;;;7.80;99.90;;;;;;5121057;27;20464;-67
2023/04/16 06:38:46;;;;;;;55.80;37.10;;;7.80;99.90;;;;;;5139215;27;20746;-68
2023/04/16 06:41:14;;;;;;;52.23;34.73;;;7.80;99.90;;;;;;5138641;27;20899;-67
2023/04/16 06:43:41;;;;;;;59.00;36.30;;;7.80;99.90;;;;;;5138879;27;20919;-68
2023/04/16 06:46:08;;;;;;;51.87;34.97;;;7.70;99.90;;;;;;5138687;27;20463;-68
2023/04/16 06:48:37;;;;;;;49.37;34.43;;;7.70;99.90;;;;;;5138981;27;20546;-67
2023/04/16 06:51:05;;;;;;;49.70;35.30;;;7.80;99.90;;;;;;5138567;27;20463;-68
2023/04/16 06:53:32;;;;;;;51.73;36.93;;;7.80;99.90;;;;;;5138497;27;20462;-68
2023/04/16 06:55:59;;;;;;;50.03;36.40;;;7.80;99.90;;;;;;5138658;27;20510;-68
2023/04/16 06:58:26;;;;;;;48.70;35.70;;;7.80;99.90;;;;;;5138963;27;20458;-67
2023/04/16 07:00:53;;;;;;;48.87;34.93;;;7.70;99.90;;;;;;5138395;27;20557;-68
2023/04/16 07:03:21;;;;;;;51.93;36.73;;;7.80;99.90;;;;;;5137928;27;20455;-68
2023/04/16 07:05:49;;;;;;;53.47;34.37;;;7.80;99.90;;;;;;5137973;27;20455;-68
2023/04/16 07:08:16;;;;;;;53.20;35.90;;;7.80;99.90;;;;;;5131023;27;20451;-68
2023/04/16 07:10:44;;;;;;;51.67;36.60;;;7.80;99.90;;;;;;5129946;27;20486;-68
2023/04/16 07:13:11;;;;;;;46.47;35.40;;;7.80;99.90;;;;;;5127868;27;20474;-67
2023/04/16 07:15:38;;;;;;;48.63;36.83;;;7.90;99.90;;;;;;5127741;27;20487;-67
2023/04/16 07:18:05;;;;;;;51.20;34.87;;;7.90;99.90;;;;;;5127906;27;20866;-68
2023/04/16 07:20:32;;;;;;;49.93;35.07;;;7.90;99.90;;;;;;5127914;27;20954;-68
2023/04/16 07:23:01;;;;;;;49.47;36.13;;;8.00;99.90;;;;;;5135542;27;20922;-68
2023/04/16 07:25:28;;;;;;;54.90;35.60;;;8.00;99.90;;;;;;5137851;27;20505;-68
2023/04/16 07:27:55;;;;;;;50.73;35.27;;;8.10;99.90;;;;;;5137028;27;20486;-68
2023/04/16 07:30:23;;;;;;;45.50;35.60;;;8.10;99.90;;;;;;5137052;27;20469;-68
2023/04/16 07:32:51;;;;;;;52.17;35.30;;;8.20;99.90;;;;;;5134730;28;20465;-68
2023/04/16 07:35:18;;;;;;;44.50;30.97;;;8.10;99.90;;;;;;5131333;28;20476;-68
2023/04/16 07:37:45;;;;;;;45.13;33.30;;;8.10;99.90;;;;;;5125205;28;20487;-68
2023/04/16 07:40:14;;;;;;;43.23;31.17;;;8.20;99.90;;;;;;5124318;27;20912;-68
2023/04/16 07:42:42;;;;;;;43.90;33.53;;;8.20;99.90;;;;;;5118494;28;20773;-68
2023/04/16 07:45:10;;;;;;;45.43;32.00;;;8.30;99.90;;;;;;5119015;28;20855;-68
2023/04/16 07:47:37;;;;;;;43.03;31.10;;;8.30;99.90;;;;;;5119992;28;20554;-68
2023/04/16 07:50:06;;;;;;;42.90;30.60;;;8.30;99.90;;;;;;5121130;28;20862;-68
2023/04/16 07:52:33;;;;;;;39.20;28.27;;;8.40;99.90;;;;;;5121814;28;20463;-68
2023/04/16 07:55:00;;;;;;;37.40;27.90;;;8.40;99.90;;;;;;5120852;28;20593;-68
2023/04/16 07:57:29;;;;;;;38.20;28.57;;;8.50;99.90;;;;;;5129100;27;20433;-68
2023/04/16 07:59:56;;;;;;;36.83;29.10;;;8.60;99.90;;;;;;5131567;27;20558;-68
2023/04/16 08:02:23;;;;;;;41.13;28.43;;;8.50;99.90;;;;;;5130522;27;20544;-68
2023/04/16 08:04:50;;;;;;;44.37;30.87;;;8.50;99.90;;;;;;5128688;27;20742;-68
2023/04/16 08:07:17;;;;;;;41.90;31.30;;;8.60;99.90;;;;;;5128452;27;20780;-68
2023/04/16 08:09:49;;;;;;;44.93;32.20;;;8.60;99.90;;;;;;5137458;27;20474;-68
2023/04/16 08:12:16;;;;;;;37.33;30.27;;;8.60;99.90;;;;;;5122613;27;20508;-68
2023/04/16 08:14:45;;;;;;;34.90;28.80;;;8.70;99.90;;;;;;5128440;27;20491;-68
2023/04/16 08:17:13;;;;;;;41.03;30.50;;;8.60;99.90;;;;;;5127456;27;20457;-69
2023/04/16 08:19:40;;;;;;;43.13;29.83;;;8.70;99.90;;;;;;5128395;27;20454;-68
2023/04/16 08:22:07;;;;;;;38.20;29.90;;;8.80;99.90;;;;;;5129230;27;20943;-68
2023/04/16 08:24:34;;;;;;;36.47;29.63;;;8.80;99.90;;;;;;5130845;27;20855;-69
2023/04/16 08:27:01;;;;;;;39.50;30.20;;;8.80;99.90;;;;;;5128276;27;20463;-69
2023/04/16 08:29:28;;;;;;;37.40;29.27;;;8.90;99.90;;;;;;5125803;27;20463;-69
2023/04/16 08:31:57;;;;;;;35.77;29.63;;;8.90;99.90;;;;;;5126556;27;20460;-69
2023/04/16 08:34:25;;;;;;;41.10;30.67;;;8.80;99.90;;;;;;5127584;27;20483;-69
2023/04/16 08:36:52;;;;;;;34.97;28.20;;;9.00;99.90;;;;;;5133736;27;20482;-70
2023/04/16 08:39:19;;;;;;;39.60;31.57;;;9.00;99.90;;;;;;5137178;27;21006;-69
2023/04/16 08:41:47;;;;;;;38.50;30.23;;;9.00;99.90;;;;;;5138453;27;20433;-69
2023/04/16 08:44:20;;;;;;;40.67;29.67;;;9.10;99.90;;;;;;5140367;27;20524;-69
2023/04/16 08:46:48;;;;;;;34.50;28.77;;;9.30;99.90;;;;;;5141086;27;20522;-69
2023/04/16 08:49:18;;;;;;;32.47;26.90;;;9.40;99.90;;;;;;5141122;27;20458;-69
2023/04/16 08:51:51;;;;;;;32.43;28.50;;;9.40;99.90;;;;;;5141412;27;20458;-69
2023/04/16 08:54:37;;;;;;;39.17;30.10;;;9.40;99.90;;;;;;5140522;27;20462;-69
2023/04/16 08:57:07;;;;;;;36.63;28.00;;;9.40;99.90;;;;;;5140240;27;20454;-69
2023/04/16 08:59:35;;;;;;;36.33;29.73;;;9.70;99.90;;;;;;5140968;27;20771;-70
2023/04/16 09:02:02;;;;;;;36.00;28.00;;;9.90;99.90;;;;;;5141013;27;20502;-70
2023/04/16 09:04:31;;;;;;;34.90;27.47;;;9.80;99.90;;;;;;5141259;27;20753;-70
2023/04/16 09:07:00;;;;;;;30.97;27.60;;;9.80;99.90;;;;;;5134053;27;20459;-69
2023/04/16 09:09:28;;;;;;;37.83;28.50;;;9.90;99.90;;;;;;5118782;28;20867;-69
2023/04/16 09:11:55;;;;;;;36.87;28.00;;;9.80;99.90;;;;;;5118151;28;20464;-69
2023/04/16 09:14:23;;;;;;;33.43;26.27;;;9.70;99.90;;;;;;5126192;27;20510;-69
2023/04/16 09:16:54;;;;;;;33.77;26.87;;;9.70;99.90;;;;;;5138054;27;20552;-69
2023/04/16 09:19:21;;;;;;;35.00;26.80;;;9.60;99.90;;;;;;5137910;27;20459;-69
2023/04/16 09:21:50;;;;;;;33.03;25.90;;;9.60;99.90;;;;;;5138002;27;20765;-69
2023/04/16 09:24:18;;;;;;;33.50;29.03;;;9.50;99.90;;;;;;5137095;27;20470;-68
2023/04/16 09:26:46;;;;;;;35.37;27.30;;;9.70;99.90;;;;;;5140441;27;20455;-68
2023/04/16 09:29:34;;;;;;;32.00;26.97;;;10.00;99.90;;;;;;5139740;27;20493;-68
2023/04/16 09:32:06;;;;;;;30.87;25.03;;;10.10;99.90;;;;;;5138961;27;20478;-67
2023/04/16 09:34:33;;;;;;;33.23;26.70;;;9.90;99.90;;;;;;5138364;27;20458;-67
2023/04/16 09:37:17;;;;;;;32.77;25.27;;;9.70;99.90;;;;;;5137440;27;20469;-67
2023/04/16 09:39:45;;;;;;;32.87;26.60;;;9.60;99.90;;;;;;5116655;28;20554;-67
2023/04/16 09:42:14;;;;;;;31.17;26.00;;;9.90;99.90;;;;;;5116873;28;20460;-67
2023/04/16 09:44:41;;;;;;;30.13;24.60;;;10.00;99.90;;;;;;5124476;27;20451;-67
2023/04/16 09:47:09;;;;;;;29.73;25.33;;;10.30;99.90;;;;;;5138438;27;20901;-67
2023/04/16 09:49:42;;;;;;;29.37;24.57;;;10.20;99.90;;;;;;5138280;27;20497;-66
2023/04/16 09:52:15;;;;;;;28.67;24.83;;;10.50;99.90;;;;;;5124642;27;20494;-66
2023/04/16 09:54:53;;;;;;;29.17;23.73;;;10.70;99.90;;;;;;5119389;28;20880;-67
2023/04/16 09:57:21;;;;;;;28.90;23.83;;;10.70;99.90;;;;;;5119466;28;20463;-67
2023/04/16 09:59:52;;;;;;;25.77;22.97;;;10.70;99.90;;;;;;5118904;28;20843;-67
2023/04/16 10:02:20;;;;;;;25.03;22.00;;;10.50;99.90;;;;;;5118832;28;20459;-66
2023/04/16 10:04:48;;;;;;;23.90;21.40;;;10.60;99.90;;;;;;5119613;28;20483;-67
2023/04/16 10:07:16;;;;;;;25.93;21.70;;;10.30;99.90;;;;;;5119308;28;20763;-67
2023/04/16 10:09:43;;;;;;;24.63;21.97;;;10.20;99.90;;;;;;5118247;28;20474;-67
2023/04/16 10:12:12;;;;;;;28.57;23.63;;;10.30;99.90;;;;;;5119402;28;20869;-67
2023/04/16 10:14:40;;;;;;;24.93;22.13;;;10.60;99.90;;;;;;5118961;28;20471;-64
2023/04/16 10:17:08;;;;;;;25.93;23.13;;;10.70;1.00;;;;;;5118082;28;20464;-65
2023/04/16 10:19:36;;;;;;;28.03;23.70;;;10.70;1.00;;;;;;5119200;28;20492;-64
2023/04/16 10:22:04;;;;;;;30.50;25.07;;;10.80;99.90;;;;;;5118977;28;20466;-65
2023/04/16 10:24:32;;;;;;;28.40;23.70;;;10.90;99.90;;;;;;5117023;28;20521;-65
2023/04/16 10:27:00;;;;;;;25.57;22.80;;;10.90;99.90;;;;;;5115851;28;20460;-65
2023/04/16 10:29:30;;;;;;;27.30;23.73;;;11.20;1.00;;;;;;5117077;28;20534;-65
2023/04/16 10:31:58;;;;;;;24.57;21.87;;;11.30;99.90;;;;;;5115683;28;20750;-65
2023/04/16 10:34:27;;;;;;;24.63;21.97;;;11.40;1.00;;;;;;5115519;28;20463;-66
2023/04/16 10:36:55;;;;;;;27.50;22.00;;;11.50;99.90;;;;;;5115188;28;20483;-65
2023/04/16 10:39:24;;;;;;;26.30;21.43;;;11.90;99.90;;;;;;5115353;27;20459;-65
2023/04/16 10:42:06;;;;;;;24.43;21.20;;;12.10;1.00;;;;;;5115553;28;20469;-65
2023/04/16 10:44:34;;;;;;;24.13;20.23;;;11.90;99.90;;;;;;5115549;28;20468;-65
2023/04/16 10:47:02;;;;;;;23.00;20.40;;;12.10;1.00;;;;;;5117718;28;20461;-65
2023/04/16 10:49:29;;;;;;;28.43;22.93;;;12.00;1.00;;;;;;5118056;28;20463;-65
2023/04/16 10:51:57;;;;;;;24.90;19.80;;;12.30;1.00;;;;;;5118415;28;20915;-66
2023/04/16 10:54:26;;;;;;;23.27;20.77;;;12.10;1.00;;;;;;5118525;28;20558;-64
2023/04/16 10:56:56;;;;;;;25.30;22.70;;;12.00;1.00;;;;;;5118176;28;20523;-65
2023/04/16 10:59:24;;;;;;;24.83;21.80;;;11.90;1.00;;;;;;5117881;28;20499;-65
2023/04/16 11:01:55;;;;;;;23.57;21.00;;;11.80;1.00;;;;;;5118016;28;20459;-65
2023/04/16 11:04:33;;;;;;;24.07;21.10;;;11.90;1.00;;;;;;5117474;28;20811;-65
2023/04/16 11:07:05;;;;;;;23.33;20.53;;;12.10;1.00;;;;;;5117226;28;20451;-64
2023/04/16 11:10:04;;;;;;;22.10;19.70;;;12.10;1.00;;;;;;5136712;27;20737;-65
2023/04/16 11:12:36;;;;;;;21.63;19.30;;;12.30;1.00;;;;;;5136970;27;20511;-64
2023/04/16 11:15:05;;;;;;;20.07;17.90;;;13.20;1.00;;;;;;5136432;27;20462;-65
2023/04/16 11:17:38;;;;;;;20.80;18.77;;;13.20;1.00;;;;;;5136741;27;20450;-64
2023/04/16 11:20:07;;;;;;;22.10;19.70;;;13.50;1.00;;;;;;5136636;27;20458;-64
2023/04/16 11:22:36;;;;;;;20.80;18.30;;;13.50;1.00;;;;;;5137067;27;20490;-64
2023/04/16 11:25:03;;;;;;;19.97;17.97;;;13.00;1.00;;;;;;5137632;27;20903;-64
2023/04/16 11:27:31;;;;;;;21.37;19.07;;;13.10;1.00;;;;;;5138207;27;20459;-65
2023/04/16 11:30:03;;;;;;;19.17;17.30;;;12.80;1.00;;;;;;5138380;27;20489;-65
2023/04/16 11:32:33;;;;;;;21.63;19.50;;;12.70;1.00;;;;;;5138335;27;20473;-66
2023/04/16 11:35:03;;;;;;;19.20;17.30;;;12.80;1.00;;;;;;5134497;28;20447;-65
2023/04/16 11:37:34;;;;;;;21.20;18.90;;;12.50;1.00;;;;;;5128124;27;20773;-65
2023/04/16 11:40:03;;;;;;;22.23;19.83;;;12.60;1.00;;;;;;5128369;28;20443;-65
2023/04/16 11:42:30;;;;;;;20.80;18.70;;;12.50;1.00;;;;;;5117925;28;20464;-64
2023/04/16 11:45:00;;;;;;;22.40;20.03;;;12.20;1.00;;;;;;5120213;28;20459;-64
2023/04/16 11:47:27;;;;;;;19.63;17.60;;;12.60;1.00;;;;;;5116672;28;20764;-64
2023/04/16 11:49:56;;;;;;;21.53;19.23;;;13.20;1.00;;;;;;5116840;28;20456;-63
2023/04/16 11:52:27;;;;;;;18.70;16.70;;;13.70;1.00;;;;;;5117138;28;20896;-64
2023/04/16 11:54:54;;;;;;;20.00;17.20;;;13.30;99.90;;;;;;5117011;28;20466;-63
2023/04/16 11:57:26;;;;;;;18.63;16.90;;;13.50;1.00;;;;;;5117245;28;20495;-63
2023/04/16 11:59:53;;;;;;;18.27;16.47;;;14.10;1.00;;;;;;5117477;28;20744;-63
2023/04/16 12:02:35;;;;;;;18.60;16.80;;;14.20;99.90;;;;;;5117562;28;20504;-63
2023/04/16 12:05:06;;;;;;;19.00;17.10;;;13.90;99.90;;;;;;5116962;28;20459;-63
2023/04/16 12:07:43;;;;;;;20.53;17.77;;;14.80;99.90;;;;;;5115845;28;20884;-64
2023/04/16 12:10:11;;;;;;;19.53;17.63;;;14.10;99.90;;;;;;5115960;28;20459;-65
2023/04/16 12:12:38;;;;;;;17.97;16.07;;;13.70;99.90;;;;;;5115850;28;20794;-64
2023/04/16 12:15:06;;;;;;;18.70;16.87;;;13.10;99.90;;;;;;5116327;28;20504;-63
2023/04/16 12:17:35;;;;;;;18.87;16.97;;;13.00;99.90;;;;;;5116182;28;20495;-64
2023/04/16 12:20:08;;;;;;;19.53;17.63;;;13.30;99.90;;;;;;5114705;28;20455;-65
2023/04/16 12:22:37;;;;;;;19.67;17.67;;;13.20;99.90;;;;;;5135704;28;20477;-65
2023/04/16 12:25:06;;;;;;;20.83;18.70;;;13.20;99.90;;;;;;5137824;27;20952;-64
2023/04/16 12:27:47;;;;;;;20.80;18.70;;;13.20;99.90;;;;;;5136686;27;20459;-64
2023/04/16 12:30:15;;;;;;;20.07;18.07;;;13.30;99.90;;;;;;5137691;28;20515;-64
2023/04/16 12:32:43;;;;;;;19.63;17.50;;;13.30;99.90;;;;;;5139865;27;20458;-64
2023/04/16 12:35:12;;;;;;;19.73;17.63;;;13.20;99.90;;;;;;5129854;27;20470;-64
2023/04/16 12:37:40;;;;;;;18.67;16.60;;;13.00;99.90;;;;;;5131272;27;20490;-64
2023/04/16 12:40:08;;;;;;;21.13;19.03;;;12.90;99.90;;;;;;5119224;27;20507;-63
2023/04/16 12:42:35;;;;;;;21.10;19.00;;;12.90;99.90;;;;;;5119320;28;20876;-63